首页
METAR-TAF:

METAR-TAF

机场 :

马略卡岛帕尔马机场

帕爾馬, 西班牙

纬度: 39-33N, 经度: 002-44E, 海拔: 4米

当前天气观测

该预报发布于20分钟前的02:30 UTC
风速7节,风向东转东北
温度 25°C
湿度 57%
气压 1018 hPa
能见度10公里或以上
1500米以下无云,无积雨云

METAR: LEPA 270230Z 07007KT CAVOK 25/16 Q1018 NOSIG

时间: 04:50 (02:50 UTC)

预报

该预报发布于3小时和50分钟前的23:00 UTC
预报有效从27日的 00点(UTC)到 27日的 24点(UTC)
风速8节,风向东北
能见度10公里或以上
1500米以下无云,无积雨云
成为
从 27日的 13点(UTC)到 27日的 15点(UTC)
风速10节,风向西南
成为
从 27日的 18点(UTC)到 27日的 20点(UTC)
风速3节,风向多变

TAF: LEPA 262300Z 2700/2724 05008KT CAVOK TX37/2712Z TN22/2706Z BECMG 2713/2715 23010KT BECMG 2718/2720 VRB03KT

超过4000个机场的气象观测和天气预报(METAR&TAF报告)。

可查询的气象台以黄色和红色小点在地图上表示。

将鼠标移到小点上方,可查看气象台名称。

然后点击查看天气观测和预报。

如需切换地图:点击带黑十字的绿色按钮放大地图;点击带横线的绿色按钮缩小地图;或者点击绿色箭头查看邻近地区的地图。


METAR-TAF: